sensor_id;sensor_type;location;lat;lon;timestamp;temperature;humidity
44215;DHT22;29884;47.450;19.124;2023-12-28T00:00:41;3.20;99.90
44215;DHT22;29884;47.450;19.124;2023-12-28T00:03:07;3.20;99.90
44215;DHT22;29884;47.450;19.124;2023-12-28T00:05:32;3.20;99.90
44215;DHT22;29884;47.450;19.124;2023-12-28T00:07:58;3.20;99.90
44215;DHT22;29884;47.450;19.124;2023-12-28T00:10:27;3.20;99.90
44215;DHT22;29884;47.450;19.124;2023-12-28T00:12:53;3.10;99.90
44215;DHT22;29884;47.450;19.124;2023-12-28T00:15:19;3.20;99.90
44215;DHT22;29884;47.450;19.124;2023-12-28T00:17:45;3.10;99.90
44215;DHT22;29884;47.450;19.124;2023-12-28T00:20:11;3.10;99.90
44215;DHT22;29884;47.450;19.124;2023-12-28T00:22:37;3.10;99.90
44215;DHT22;29884;47.450;19.124;2023-12-28T00:25:06;3.10;99.90
44215;DHT22;29884;47.450;19.124;2023-12-28T00:27:32;3.10;99.90
44215;DHT22;29884;47.450;19.124;2023-12-28T00:29:59;3.10;99.90
44215;DHT22;29884;47.450;19.124;2023-12-28T00:32:25;3.10;99.90
44215;DHT22;29884;47.450;19.124;2023-12-28T00:34:51;3.00;99.90
44215;DHT22;29884;47.450;19.124;2023-12-28T00:37:16;3.00;99.90
44215;DHT22;29884;47.450;19.124;2023-12-28T00:39:42;3.00;99.90
44215;DHT22;29884;47.450;19.124;2023-12-28T00:42:08;3.00;99.90
44215;DHT22;29884;47.450;19.124;2023-12-28T00:44:33;3.00;99.90
44215;DHT22;29884;47.450;19.124;2023-12-28T00:46:59;3.00;99.90
44215;DHT22;29884;47.450;19.124;2023-12-28T00:49:24;3.00;99.90
44215;DHT22;29884;47.450;19.124;2023-12-28T00:51:50;2.90;99.90
44215;DHT22;29884;47.450;19.124;2023-12-28T00:54:16;2.90;99.90
44215;DHT22;29884;47.450;19.124;2023-12-28T00:56:41;2.90;99.90
44215;DHT22;29884;47.450;19.124;2023-12-28T00:59:07;2.80;99.90
44215;DHT22;29884;47.450;19.124;2023-12-28T01:01:32;2.80;99.90
44215;DHT22;29884;47.450;19.124;2023-12-28T01:03:58;2.80;99.90
44215;DHT22;29884;47.450;19.124;2023-12-28T01:06:24;2.80;99.90
44215;DHT22;29884;47.450;19.124;2023-12-28T01:08:54;2.80;99.90
44215;DHT22;29884;47.450;19.124;2023-12-28T01:11:20;2.80;99.90
44215;DHT22;29884;47.450;19.124;2023-12-28T01:13:46;2.80;99.90
44215;DHT22;29884;47.450;19.124;2023-12-28T01:16:14;2.80;99.90
44215;DHT22;29884;47.450;19.124;2023-12-28T01:18:40;2.80;99.90
44215;DHT22;29884;47.450;19.124;2023-12-28T01:21:06;2.80;99.90
44215;DHT22;29884;47.450;19.124;2023-12-28T01:23:32;2.70;99.90
44215;DHT22;29884;47.450;19.124;2023-12-28T01:25:58;2.70;99.90
44215;DHT22;29884;47.450;19.124;2023-12-28T01:28:24;2.70;99.90
44215;DHT22;29884;47.450;19.124;2023-12-28T01:30:49;2.70;99.90
44215;DHT22;29884;47.450;19.124;2023-12-28T01:33:15;2.60;99.90
44215;DHT22;29884;47.450;19.124;2023-12-28T01:35:41;2.60;99.90
44215;DHT22;29884;47.450;19.124;2023-12-28T01:38:07;2.70;99.90
44215;DHT22;29884;47.450;19.124;2023-12-28T01:40:33;2.60;99.90
44215;DHT22;29884;47.450;19.124;2023-12-28T01:42:58;2.60;99.90
44215;DHT22;29884;47.450;19.124;2023-12-28T01:45:24;2.60;99.90
44215;DHT22;29884;47.450;19.124;2023-12-28T01:47:50;2.60;99.90
44215;DHT22;29884;47.450;19.124;2023-12-28T01:50:18;2.60;99.90
44215;DHT22;29884;47.450;19.124;2023-12-28T01:52:44;2.60;99.90
44215;DHT22;29884;47.450;19.124;2023-12-28T01:55:10;2.60;99.90
44215;DHT22;29884;47.450;19.124;2023-12-28T01:57:36;2.50;99.90
44215;DHT22;29884;47.450;19.124;2023-12-28T02:00:03;2.60;99.90
44215;DHT22;29884;47.450;19.124;2023-12-28T02:02:30;2.50;99.90
44215;DHT22;29884;47.450;19.124;2023-12-28T02:04:57;2.50;99.90
44215;DHT22;29884;47.450;19.124;2023-12-28T02:07:23;2.50;99.90
44215;DHT22;29884;47.450;19.124;2023-12-28T02:09:49;2.50;99.90
44215;DHT22;29884;47.450;19.124;2023-12-28T02:12:15;2.50;99.90
44215;DHT22;29884;47.450;19.124;2023-12-28T02:14:40;2.50;99.90
44215;DHT22;29884;47.450;19.124;2023-12-28T02:17:30;2.50;99.90
44215;DHT22;29884;47.450;19.124;2023-12-28T02:19:58;2.50;99.90
44215;DHT22;29884;47.450;19.124;2023-12-28T02:22:26;2.40;99.90
44215;DHT22;29884;47.450;19.124;2023-12-28T02:25:24;2.40;99.90
44215;DHT22;29884;47.450;19.124;2023-12-28T02:27:50;2.40;99.90
44215;DHT22;29884;47.450;19.124;2023-12-28T02:30:17;2.30;99.90
44215;DHT22;29884;47.450;19.124;2023-12-28T02:32:48;2.40;99.90
44215;DHT22;29884;47.450;19.124;2023-12-28T02:35:33;2.30;99.90
44215;DHT22;29884;47.450;19.124;2023-12-28T02:38:02;2.30;99.90
44215;DHT22;29884;47.450;19.124;2023-12-28T02:40:34;2.30;99.90
44215;DHT22;29884;47.450;19.124;2023-12-28T02:43:01;2.30;99.90
44215;DHT22;29884;47.450;19.124;2023-12-28T02:45:26;2.20;99.90
44215;DHT22;29884;47.450;19.124;2023-12-28T02:47:52;2.20;99.90
44215;DHT22;29884;47.450;19.124;2023-12-28T02:50:18;2.20;99.90
44215;DHT22;29884;47.450;19.124;2023-12-28T02:52:43;2.20;99.90
44215;DHT22;29884;47.450;19.124;2023-12-28T02:55:09;2.20;99.90
44215;DHT22;29884;47.450;19.124;2023-12-28T02:57:35;2.20;99.90
44215;DHT22;29884;47.450;19.124;2023-12-28T03:00:04;2.10;99.90
44215;DHT22;29884;47.450;19.124;2023-12-28T03:02:30;2.10;99.90
44215;DHT22;29884;47.450;19.124;2023-12-28T03:04:56;2.10;99.90
44215;DHT22;29884;47.450;19.124;2023-12-28T03:07:21;2.10;99.90
44215;DHT22;29884;47.450;19.124;2023-12-28T03:09:47;2.10;99.90
44215;DHT22;29884;47.450;19.124;2023-12-28T03:12:13;2.10;99.90
44215;DHT22;29884;47.450;19.124;2023-12-28T03:14:38;2.10;99.90
44215;DHT22;29884;47.450;19.124;2023-12-28T03:17:04;2.10;99.90
44215;DHT22;29884;47.450;19.124;2023-12-28T03:19:29;2.00;99.90
44215;DHT22;29884;47.450;19.124;2023-12-28T03:21:55;2.00;99.90
44215;DHT22;29884;47.450;19.124;2023-12-28T03:24:21;2.00;99.90
44215;DHT22;29884;47.450;19.124;2023-12-28T03:26:46;2.00;99.90
44215;DHT22;29884;47.450;19.124;2023-12-28T03:29:12;2.00;99.90
44215;DHT22;29884;47.450;19.124;2023-12-28T03:31:40;2.00;99.90
44215;DHT22;29884;47.450;19.124;2023-12-28T03:34:06;2.00;99.90
44215;DHT22;29884;47.450;19.124;2023-12-28T03:36:32;1.90;99.90
44215;DHT22;29884;47.450;19.124;2023-12-28T03:38:58;1.90;99.90
44215;DHT22;29884;47.450;19.124;2023-12-28T03:41:23;1.90;99.90
44215;DHT22;29884;47.450;19.124;2023-12-28T03:43:49;1.90;99.90
44215;DHT22;29884;47.450;19.124;2023-12-28T03:46:14;1.80;99.90
44215;DHT22;29884;47.450;19.124;2023-12-28T03:48:40;1.80;99.90
44215;DHT22;29884;47.450;19.124;2023-12-28T03:51:06;1.80;99.90
44215;DHT22;29884;47.450;19.124;2023-12-28T03:53:31;1.80;99.90
44215;DHT22;29884;47.450;19.124;2023-12-28T03:56:00;1.80;99.90
44215;DHT22;29884;47.450;19.124;2023-12-28T03:58:26;1.70;99.90
44215;DHT22;29884;47.450;19.124;2023-12-28T04:00:52;1.70;99.90
44215;DHT22;29884;47.450;19.124;2023-12-28T04:03:18;1.80;99.90
44215;DHT22;29884;47.450;19.124;2023-12-28T04:05:44;1.70;99.90
44215;DHT22;29884;47.450;19.124;2023-12-28T04:08:10;1.70;99.90
44215;DHT22;29884;47.450;19.124;2023-12-28T04:10:35;1.70;99.90
44215;DHT22;29884;47.450;19.124;2023-12-28T04:13:03;1.70;99.90
44215;DHT22;29884;47.450;19.124;2023-12-28T04:15:29;1.70;99.90
44215;DHT22;29884;47.450;19.124;2023-12-28T04:17:55;1.70;99.90
44215;DHT22;29884;47.450;19.124;2023-12-28T04:20:21;1.70;99.90
44215;DHT22;29884;47.450;19.124;2023-12-28T04:22:46;1.60;99.90
44215;DHT22;29884;47.450;19.124;2023-12-28T04:25:12;1.60;99.90
44215;DHT22;29884;47.450;19.124;2023-12-28T04:27:39;1.60;99.90
44215;DHT22;29884;47.450;19.124;2023-12-28T04:30:05;1.60;99.90
44215;DHT22;29884;47.450;19.124;2023-12-28T04:32:34;1.60;99.90
44215;DHT22;29884;47.450;19.124;2023-12-28T04:34:59;1.50;99.90
44215;DHT22;29884;47.450;19.124;2023-12-28T04:37:25;1.50;99.90
44215;DHT22;29884;47.450;19.124;2023-12-28T04:39:53;1.60;99.90
44215;DHT22;29884;47.450;19.124;2023-12-28T04:42:19;1.50;99.90
44215;DHT22;29884;47.450;19.124;2023-12-28T04:44:45;1.50;99.90
44215;DHT22;29884;47.450;19.124;2023-12-28T04:47:10;1.50;99.90
44215;DHT22;29884;47.450;19.124;2023-12-28T04:49:36;1.50;99.90
44215;DHT22;29884;47.450;19.124;2023-12-28T04:52:01;1.50;99.90
44215;DHT22;29884;47.450;19.124;2023-12-28T04:54:27;1.50;99.90
44215;DHT22;29884;47.450;19.124;2023-12-28T04:56:53;1.50;99.90
44215;DHT22;29884;47.450;19.124;2023-12-28T04:59:18;1.60;99.90
44215;DHT22;29884;47.450;19.124;2023-12-28T05:01:44;1.50;99.90
44215;DHT22;29884;47.450;19.124;2023-12-28T05:04:11;1.50;99.90
44215;DHT22;29884;47.450;19.124;2023-12-28T05:06:37;1.50;99.90
44215;DHT22;29884;47.450;19.124;2023-12-28T05:09:03;1.50;99.90
44215;DHT22;29884;47.450;19.124;2023-12-28T05:11:28;1.40;99.90
44215;DHT22;29884;47.450;19.124;2023-12-28T05:13:54;1.40;99.90
44215;DHT22;29884;47.450;19.124;2023-12-28T05:16:20;1.40;99.90
44215;DHT22;29884;47.450;19.124;2023-12-28T05:18:48;1.40;99.90
44215;DHT22;29884;47.450;19.124;2023-12-28T05:21:14;1.30;99.90
44215;DHT22;29884;47.450;19.124;2023-12-28T05:23:40;1.30;99.90
44215;DHT22;29884;47.450;19.124;2023-12-28T05:26:06;1.30;99.90
44215;DHT22;29884;47.450;19.124;2023-12-28T05:28:32;1.20;99.90
44215;DHT22;29884;47.450;19.124;2023-12-28T05:30:58;1.20;99.90
44215;DHT22;29884;47.450;19.124;2023-12-28T05:33:26;1.20;99.90
44215;DHT22;29884;47.450;19.124;2023-12-28T05:35:52;1.30;99.90
44215;DHT22;29884;47.450;19.124;2023-12-28T05:38:17;1.20;99.90
44215;DHT22;29884;47.450;19.124;2023-12-28T05:40:44;1.20;99.90
44215;DHT22;29884;47.450;19.124;2023-12-28T05:43:13;1.20;99.90
44215;DHT22;29884;47.450;19.124;2023-12-28T05:45:38;1.20;99.90
44215;DHT22;29884;47.450;19.124;2023-12-28T05:48:04;1.20;99.90
44215;DHT22;29884;47.450;19.124;2023-12-28T05:50:30;1.20;99.90
44215;DHT22;29884;47.450;19.124;2023-12-28T05:52:56;1.20;99.90
44215;DHT22;29884;47.450;19.124;2023-12-28T05:55:21;1.10;99.90
44215;DHT22;29884;47.450;19.124;2023-12-28T05:57:47;1.10;99.90
44215;DHT22;29884;47.450;19.124;2023-12-28T06:00:14;1.00;99.90
44215;DHT22;29884;47.450;19.124;2023-12-28T06:02:40;1.00;99.90
44215;DHT22;29884;47.450;19.124;2023-12-28T06:05:06;1.00;99.90
44215;DHT22;29884;47.450;19.124;2023-12-28T06:07:31;1.00;99.90
44215;DHT22;29884;47.450;19.124;2023-12-28T06:09:57;1.00;99.90
44215;DHT22;29884;47.450;19.124;2023-12-28T06:12:23;1.00;99.90
44215;DHT22;29884;47.450;19.124;2023-12-28T06:14:48;1.10;99.90
44215;DHT22;29884;47.450;19.124;2023-12-28T06:17:14;1.00;99.90
44215;DHT22;29884;47.450;19.124;2023-12-28T06:19:41;1.00;99.90
44215;DHT22;29884;47.450;19.124;2023-12-28T06:22:06;1.00;99.90
44215;DHT22;29884;47.450;19.124;2023-12-28T06:24:32;1.00;99.90
44215;DHT22;29884;47.450;19.124;2023-12-28T06:26:58;1.00;99.90
44215;DHT22;29884;47.450;19.124;2023-12-28T06:29:23;0.90;99.90
44215;DHT22;29884;47.450;19.124;2023-12-28T06:31:49;0.90;99.90
44215;DHT22;29884;47.450;19.124;2023-12-28T06:34:14;0.90;99.90
44215;DHT22;29884;47.450;19.124;2023-12-28T06:36:40;0.90;99.90
44215;DHT22;29884;47.450;19.124;2023-12-28T06:39:06;0.90;99.90
44215;DHT22;29884;47.450;19.124;2023-12-28T06:41:31;0.90;99.90
44215;DHT22;29884;47.450;19.124;2023-12-28T06:43:57;0.80;99.90
44215;DHT22;29884;47.450;19.124;2023-12-28T06:46:22;0.80;99.90
44215;DHT22;29884;47.450;19.124;2023-12-28T06:48:48;0.90;99.90
44215;DHT22;29884;47.450;19.124;2023-12-28T06:51:19;1.00;99.90
44215;DHT22;29884;47.450;19.124;2023-12-28T06:53:46;1.00;99.90
44215;DHT22;29884;47.450;19.124;2023-12-28T06:56:12;1.10;99.90
44215;DHT22;29884;47.450;19.124;2023-12-28T06:58:37;1.00;99.90
44215;DHT22;29884;47.450;19.124;2023-12-28T07:01:04;1.10;99.90
44215;DHT22;29884;47.450;19.124;2023-12-28T07:03:29;1.10;99.90
44215;DHT22;29884;47.450;19.124;2023-12-28T07:06:01;1.20;99.90
44215;DHT22;29884;47.450;19.124;2023-12-28T07:08:27;1.20;99.90
44215;DHT22;29884;47.450;19.124;2023-12-28T07:10:53;1.20;99.90
44215;DHT22;29884;47.450;19.124;2023-12-28T07:13:18;1.20;99.90
44215;DHT22;29884;47.450;19.124;2023-12-28T07:15:44;1.20;99.90
44215;DHT22;29884;47.450;19.124;2023-12-28T07:18:09;1.30;99.90
44215;DHT22;29884;47.450;19.124;2023-12-28T07:20:35;1.40;99.90
44215;DHT22;29884;47.450;19.124;2023-12-28T07:23:00;1.40;99.90
44215;DHT22;29884;47.450;19.124;2023-12-28T07:25:26;1.40;99.90
44215;DHT22;29884;47.450;19.124;2023-12-28T07:27:52;1.50;99.90
44215;DHT22;29884;47.450;19.124;2023-12-28T07:30:17;1.50;99.90
44215;DHT22;29884;47.450;19.124;2023-12-28T07:32:43;1.60;99.90
44215;DHT22;29884;47.450;19.124;2023-12-28T07:35:10;1.60;99.90
44215;DHT22;29884;47.450;19.124;2023-12-28T07:37:36;1.70;99.90
44215;DHT22;29884;47.450;19.124;2023-12-28T07:40:02;1.80;99.90
44215;DHT22;29884;47.450;19.124;2023-12-28T07:42:29;1.90;99.90
44215;DHT22;29884;47.450;19.124;2023-12-28T07:44:54;2.00;99.90
44215;DHT22;29884;47.450;19.124;2023-12-28T07:47:20;2.10;99.90
44215;DHT22;29884;47.450;19.124;2023-12-28T07:49:46;2.20;99.90
44215;DHT22;29884;47.450;19.124;2023-12-28T07:52:11;2.30;99.90
44215;DHT22;29884;47.450;19.124;2023-12-28T07:54:37;2.40;99.90
44215;DHT22;29884;47.450;19.124;2023-12-28T07:57:02;2.50;99.90
44215;DHT22;29884;47.450;19.124;2023-12-28T07:59:28;2.60;99.90
44215;DHT22;29884;47.450;19.124;2023-12-28T08:01:54;2.80;99.90
44215;DHT22;29884;47.450;19.124;2023-12-28T08:04:20;2.90;99.90
44215;DHT22;29884;47.450;19.124;2023-12-28T08:06:46;3.00;99.90
44215;DHT22;29884;47.450;19.124;2023-12-28T08:09:11;3.10;99.90
44215;DHT22;29884;47.450;19.124;2023-12-28T08:11:37;3.20;99.90
44215;DHT22;29884;47.450;19.124;2023-12-28T08:14:03;3.30;99.90
44215;DHT22;29884;47.450;19.124;2023-12-28T08:16:29;3.40;99.90
44215;DHT22;29884;47.450;19.124;2023-12-28T08:18:54;3.50;99.90
44215;DHT22;29884;47.450;19.124;2023-12-28T08:21:20;3.60;99.90
44215;DHT22;29884;47.450;19.124;2023-12-28T08:23:45;3.60;99.90
44215;DHT22;29884;47.450;19.124;2023-12-28T08:26:11;3.70;99.90
44215;DHT22;29884;47.450;19.124;2023-12-28T08:28:37;3.70;99.90
44215;DHT22;29884;47.450;19.124;2023-12-28T08:31:02;3.90;99.90
44215;DHT22;29884;47.450;19.124;2023-12-28T08:33:28;4.00;99.90
44215;DHT22;29884;47.450;19.124;2023-12-28T08:35:53;4.00;99.90
44215;DHT22;29884;47.450;19.124;2023-12-28T08:38:19;4.10;99.90
44215;DHT22;29884;47.450;19.124;2023-12-28T08:40:45;4.20;99.90
44215;DHT22;29884;47.450;19.124;2023-12-28T08:43:11;4.30;99.90
44215;DHT22;29884;47.450;19.124;2023-12-28T08:45:36;4.30;99.90
44215;DHT22;29884;47.450;19.124;2023-12-28T08:48:03;4.40;99.90
44215;DHT22;29884;47.450;19.124;2023-12-28T08:50:28;4.30;99.90
44215;DHT22;29884;47.450;19.124;2023-12-28T08:52:54;4.50;99.90
44215;DHT22;29884;47.450;19.124;2023-12-28T08:55:21;4.50;99.90
44215;DHT22;29884;47.450;19.124;2023-12-28T08:57:47;4.50;99.90
44215;DHT22;29884;47.450;19.124;2023-12-28T09:00:13;4.50;99.90
44215;DHT22;29884;47.450;19.124;2023-12-28T09:02:40;4.60;99.90
44215;DHT22;29884;47.450;19.124;2023-12-28T09:05:06;4.70;99.90
44215;DHT22;29884;47.450;19.124;2023-12-28T09:07:32;4.80;99.90
44215;DHT22;29884;47.450;19.124;2023-12-28T09:09:58;4.80;99.90
44215;DHT22;29884;47.450;19.124;2023-12-28T09:12:23;4.80;99.90
44215;DHT22;29884;47.450;19.124;2023-12-28T09:14:49;4.80;99.90
44215;DHT22;29884;47.450;19.124;2023-12-28T09:17:20;4.70;99.90
44215;DHT22;29884;47.450;19.124;2023-12-28T09:19:46;4.90;99.90
44215;DHT22;29884;47.450;19.124;2023-12-28T09:22:11;4.90;99.90
44215;DHT22;29884;47.450;19.124;2023-12-28T09:24:37;4.90;99.90
44215;DHT22;29884;47.450;19.124;2023-12-28T09:27:03;5.00;99.90
44215;DHT22;29884;47.450;19.124;2023-12-28T09:29:28;5.10;99.90
44215;DHT22;29884;47.450;19.124;2023-12-28T09:31:54;5.20;99.90
44215;DHT22;29884;47.450;19.124;2023-12-28T09:34:19;5.20;99.90
44215;DHT22;29884;47.450;19.124;2023-12-28T09:36:45;5.30;99.90
44215;DHT22;29884;47.450;19.124;2023-12-28T09:39:11;5.30;99.90
44215;DHT22;29884;47.450;19.124;2023-12-28T09:41:40;5.40;99.90
44215;DHT22;29884;47.450;19.124;2023-12-28T09:44:11;5.50;99.90
44215;DHT22;29884;47.450;19.124;2023-12-28T09:46:37;5.50;99.90
44215;DHT22;29884;47.450;19.124;2023-12-28T09:49:04;5.60;99.90
44215;DHT22;29884;47.450;19.124;2023-12-28T09:51:30;5.60;99.90
44215;DHT22;29884;47.450;19.124;2023-12-28T09:53:56;5.70;99.90
44215;DHT22;29884;47.450;19.124;2023-12-28T09:56:23;5.70;99.90
44215;DHT22;29884;47.450;19.124;2023-12-28T09:58:49;5.70;99.90
44215;DHT22;29884;47.450;19.124;2023-12-28T10:01:17;5.80;99.90
44215;DHT22;29884;47.450;19.124;2023-12-28T10:03:44;5.90;99.90
44215;DHT22;29884;47.450;19.124;2023-12-28T10:06:09;6.00;99.90
44215;DHT22;29884;47.450;19.124;2023-12-28T10:08:35;6.10;99.90
44215;DHT22;29884;47.450;19.124;2023-12-28T10:11:02;6.10;99.90
44215;DHT22;29884;47.450;19.124;2023-12-28T10:13:28;6.20;99.90
44215;DHT22;29884;47.450;19.124;2023-12-28T10:15:57;6.20;99.90
44215;DHT22;29884;47.450;19.124;2023-12-28T10:18:23;6.20;99.90
44215;DHT22;29884;47.450;19.124;2023-12-28T10:20:50;6.30;99.90
44215;DHT22;29884;47.450;19.124;2023-12-28T10:23:16;6.20;99.90
44215;DHT22;29884;47.450;19.124;2023-12-28T10:25:42;6.20;99.90
44215;DHT22;29884;47.450;19.124;2023-12-28T10:28:09;6.30;99.90
44215;DHT22;29884;47.450;19.124;2023-12-28T10:30:35;6.40;99.90
44215;DHT22;29884;47.450;19.124;2023-12-28T10:33:00;6.40;99.90
44215;DHT22;29884;47.450;19.124;2023-12-28T10:35:26;6.50;99.90
44215;DHT22;29884;47.450;19.124;2023-12-28T10:37:52;6.50;99.90
44215;DHT22;29884;47.450;19.124;2023-12-28T10:40:20;6.50;99.90
44215;DHT22;29884;47.450;19.124;2023-12-28T10:45:12;6.60;99.90
44215;DHT22;29884;47.450;19.124;2023-12-28T10:47:43;6.60;99.90
44215;DHT22;29884;47.450;19.124;2023-12-28T10:50:11;6.60;99.90
44215;DHT22;29884;47.450;19.124;2023-12-28T10:52:37;6.70;99.90
44215;DHT22;29884;47.450;19.124;2023-12-28T10:58:12;6.80;99.90
44215;DHT22;29884;47.450;19.124;2023-12-28T11:00:54;6.80;99.90
44215;DHT22;29884;47.450;19.124;2023-12-28T11:03:25;6.90;99.90
44215;DHT22;29884;47.450;19.124;2023-12-28T11:05:53;7.00;99.90
44215;DHT22;29884;47.450;19.124;2023-12-28T11:08:21;7.00;99.90
44215;DHT22;29884;47.450;19.124;2023-12-28T11:10:49;7.00;99.90
44215;DHT22;29884;47.450;19.124;2023-12-28T11:13:16;7.10;99.90
44215;DHT22;29884;47.450;19.124;2023-12-28T11:15:44;7.20;99.90
44215;DHT22;29884;47.450;19.124;2023-12-28T11:18:14;7.30;99.90
44215;DHT22;29884;47.450;19.124;2023-12-28T11:20:41;7.30;99.90
44215;DHT22;29884;47.450;19.124;2023-12-28T11:23:07;7.30;99.90
44215;DHT22;29884;47.450;19.124;2023-12-28T11:25:33;7.40;99.90
44215;DHT22;29884;47.450;19.124;2023-12-28T11:28:00;7.50;99.90
44215;DHT22;29884;47.450;19.124;2023-12-28T11:30:33;7.50;99.90
44215;DHT22;29884;47.450;19.124;2023-12-28T11:32:59;7.60;99.90
44215;DHT22;29884;47.450;19.124;2023-12-28T11:35:38;7.60;99.90
44215;DHT22;29884;47.450;19.124;2023-12-28T11:38:06;7.50;99.90
44215;DHT22;29884;47.450;19.124;2023-12-28T11:40:45;7.60;99.90
44215;DHT22;29884;47.450;19.124;2023-12-28T11:43:18;7.70;99.90
44215;DHT22;29884;47.450;19.124;2023-12-28T11:45:51;7.70;99.90
44215;DHT22;29884;47.450;19.124;2023-12-28T11:48:26;7.60;99.90
44215;DHT22;29884;47.450;19.124;2023-12-28T11:50:55;7.80;99.90
44215;DHT22;29884;47.450;19.124;2023-12-28T11:53:22;7.80;99.90
44215;DHT22;29884;47.450;19.124;2023-12-28T11:55:49;7.80;99.90
44215;DHT22;29884;47.450;19.124;2023-12-28T11:58:19;7.80;99.90
44215;DHT22;29884;47.450;19.124;2023-12-28T12:00:44;7.90;99.90
44215;DHT22;29884;47.450;19.124;2023-12-28T12:03:13;8.00;99.90
44215;DHT22;29884;47.450;19.124;2023-12-28T12:05:39;7.90;99.90
44215;DHT22;29884;47.450;19.124;2023-12-28T12:08:06;7.80;99.90
44215;DHT22;29884;47.450;19.124;2023-12-28T12:10:34;7.90;99.90
44215;DHT22;29884;47.450;19.124;2023-12-28T12:12:59;7.90;99.90
44215;DHT22;29884;47.450;19.124;2023-12-28T12:15:25;8.00;99.90
44215;DHT22;29884;47.450;19.124;2023-12-28T12:17:51;8.00;99.90
44215;DHT22;29884;47.450;19.124;2023-12-28T12:20:17;7.90;99.90
44215;DHT22;29884;47.450;19.124;2023-12-28T12:22:43;8.00;99.90
44215;DHT22;29884;47.450;19.124;2023-12-28T12:25:09;8.00;99.90
44215;DHT22;29884;47.450;19.124;2023-12-28T12:27:36;8.00;99.90
44215;DHT22;29884;47.450;19.124;2023-12-28T12:30:04;8.10;99.90
44215;DHT22;29884;47.450;19.124;2023-12-28T12:32:30;8.00;99.90
44215;DHT22;29884;47.450;19.124;2023-12-28T12:34:57;8.10;99.90
44215;DHT22;29884;47.450;19.124;2023-12-28T12:37:23;8.10;99.90
44215;DHT22;29884;47.450;19.124;2023-12-28T12:39:49;8.10;99.90
44215;DHT22;29884;47.450;19.124;2023-12-28T12:42:15;8.10;99.90
44215;DHT22;29884;47.450;19.124;2023-12-28T12:44:42;8.10;99.90
44215;DHT22;29884;47.450;19.124;2023-12-28T12:47:07;8.10;99.90
44215;DHT22;29884;47.450;19.124;2023-12-28T12:49:33;8.10;99.90
44215;DHT22;29884;47.450;19.124;2023-12-28T12:51:58;8.10;99.90
44215;DHT22;29884;47.450;19.124;2023-12-28T12:54:26;8.10;99.90
44215;DHT22;29884;47.450;19.124;2023-12-28T12:56:52;8.20;99.90
44215;DHT22;29884;47.450;19.124;2023-12-28T12:59:19;8.20;99.90
44215;DHT22;29884;47.450;19.124;2023-12-28T13:01:45;8.20;99.90
44215;DHT22;29884;47.450;19.124;2023-12-28T13:04:13;8.20;99.90
44215;DHT22;29884;47.450;19.124;2023-12-28T13:06:41;8.20;99.90
44215;DHT22;29884;47.450;19.124;2023-12-28T13:09:07;8.20;99.90
44215;DHT22;29884;47.450;19.124;2023-12-28T13:11:35;8.20;99.90
44215;DHT22;29884;47.450;19.124;2023-12-28T13:14:01;8.20;99.90
44215;DHT22;29884;47.450;19.124;2023-12-28T13:16:27;8.20;99.90
44215;DHT22;29884;47.450;19.124;2023-12-28T13:18:52;8.30;99.90
44215;DHT22;29884;47.450;19.124;2023-12-28T13:21:18;8.20;99.90
44215;DHT22;29884;47.450;19.124;2023-12-28T13:23:43;8.20;99.90
44215;DHT22;29884;47.450;19.124;2023-12-28T13:26:09;8.30;99.90
44215;DHT22;29884;47.450;19.124;2023-12-28T13:28:35;8.30;99.90
44215;DHT22;29884;47.450;19.124;2023-12-28T13:31:00;8.30;99.90
44215;DHT22;29884;47.450;19.124;2023-12-28T13:33:26;8.30;99.90
44215;DHT22;29884;47.450;19.124;2023-12-28T13:35:51;8.20;99.90
44215;DHT22;29884;47.450;19.124;2023-12-28T13:38:18;8.20;99.90
44215;DHT22;29884;47.450;19.124;2023-12-28T13:40:43;8.20;99.90
44215;DHT22;29884;47.450;19.124;2023-12-28T13:43:09;8.20;99.90
44215;DHT22;29884;47.450;19.124;2023-12-28T13:45:35;8.20;99.90
44215;DHT22;29884;47.450;19.124;2023-12-28T13:48:01;8.20;99.90
44215;DHT22;29884;47.450;19.124;2023-12-28T13:50:26;8.10;99.90
44215;DHT22;29884;47.450;19.124;2023-12-28T13:52:52;8.10;99.90
44215;DHT22;29884;47.450;19.124;2023-12-28T13:55:17;8.10;99.90
44215;DHT22;29884;47.450;19.124;2023-12-28T13:57:43;8.00;99.90
44215;DHT22;29884;47.450;19.124;2023-12-28T14:00:09;8.00;99.90
44215;DHT22;29884;47.450;19.124;2023-12-28T14:02:34;8.10;99.90
44215;DHT22;29884;47.450;19.124;2023-12-28T14:05:00;8.00;99.90
44215;DHT22;29884;47.450;19.124;2023-12-28T14:07:26;8.00;99.90
44215;DHT22;29884;47.450;19.124;2023-12-28T14:09:52;8.10;99.90
44215;DHT22;29884;47.450;19.124;2023-12-28T14:12:17;8.00;99.90
44215;DHT22;29884;47.450;19.124;2023-12-28T14:14:43;7.90;99.90
44215;DHT22;29884;47.450;19.124;2023-12-28T14:17:08;7.90;99.90
44215;DHT22;29884;47.450;19.124;2023-12-28T14:19:34;7.90;99.90
44215;DHT22;29884;47.450;19.124;2023-12-28T14:22:00;7.90;99.90
44215;DHT22;29884;47.450;19.124;2023-12-28T14:24:26;7.90;99.90
44215;DHT22;29884;47.450;19.124;2023-12-28T14:26:55;7.80;99.90
44215;DHT22;29884;47.450;19.124;2023-12-28T14:29:21;7.80;99.90
44215;DHT22;29884;47.450;19.124;2023-12-28T14:31:47;7.70;99.90
44215;DHT22;29884;47.450;19.124;2023-12-28T14:34:13;7.60;99.90
44215;DHT22;29884;47.450;19.124;2023-12-28T14:36:39;7.60;99.90
44215;DHT22;29884;47.450;19.124;2023-12-28T14:39:07;7.40;99.90
44215;DHT22;29884;47.450;19.124;2023-12-28T14:41:37;7.30;99.90
44215;DHT22;29884;47.450;19.124;2023-12-28T14:44:03;7.20;99.90
44215;DHT22;29884;47.450;19.124;2023-12-28T14:46:29;7.10;99.90
44215;DHT22;29884;47.450;19.124;2023-12-28T14:48:56;7.00;99.90
44215;DHT22;29884;47.450;19.124;2023-12-28T14:51:22;7.00;99.90
44215;DHT22;29884;47.450;19.124;2023-12-28T14:53:48;6.90;99.90
44215;DHT22;29884;47.450;19.124;2023-12-28T14:56:14;6.90;99.90
44215;DHT22;29884;47.450;19.124;2023-12-28T14:58:40;6.80;99.90
44215;DHT22;29884;47.450;19.124;2023-12-28T15:01:10;6.70;99.90
44215;DHT22;29884;47.450;19.124;2023-12-28T15:03:36;6.60;99.90
44215;DHT22;29884;47.450;19.124;2023-12-28T15:06:04;6.50;99.90
44215;DHT22;29884;47.450;19.124;2023-12-28T15:08:29;6.30;99.90
44215;DHT22;29884;47.450;19.124;2023-12-28T15:10:56;6.20;99.90
44215;DHT22;29884;47.450;19.124;2023-12-28T15:13:22;6.10;99.90
44215;DHT22;29884;47.450;19.124;2023-12-28T15:15:48;6.20;99.90
44215;DHT22;29884;47.450;19.124;2023-12-28T15:18:14;6.10;99.90
44215;DHT22;29884;47.450;19.124;2023-12-28T15:20:43;6.00;99.90
44215;DHT22;29884;47.450;19.124;2023-12-28T15:23:09;5.90;99.90
44215;DHT22;29884;47.450;19.124;2023-12-28T15:25:35;5.80;99.90
44215;DHT22;29884;47.450;19.124;2023-12-28T15:28:00;5.80;99.90
44215;DHT22;29884;47.450;19.124;2023-12-28T15:30:26;5.70;99.90